sensor_id;sensor_type;location;lat;lon;timestamp;P1;durP1;ratioP1;P2;durP2;ratioP2
10582;SDS011;33679;51.218;6.786;2023-12-07T00:00:36;17.97;;;10.13;;
10582;SDS011;33679;51.218;6.786;2023-12-07T00:03:09;16.13;;;9.57;;
10582;SDS011;33679;51.218;6.786;2023-12-07T00:05:51;14.33;;;8.90;;
10582;SDS011;33679;51.218;6.786;2023-12-07T00:08:43;15.83;;;9.67;;
10582;SDS011;33679;51.218;6.786;2023-12-07T00:11:19;13.07;;;8.07;;
10582;SDS011;33679;51.218;6.786;2023-12-07T00:13:53;13.87;;;9.10;;
10582;SDS011;33679;51.218;6.786;2023-12-07T00:16:27;13.40;;;9.10;;
10582;SDS011;33679;51.218;6.786;2023-12-07T00:19:00;14.80;;;8.30;;
10582;SDS011;33679;51.218;6.786;2023-12-07T00:21:45;16.33;;;9.90;;
10582;SDS011;33679;51.218;6.786;2023-12-07T00:24:27;13.67;;;9.67;;
10582;SDS011;33679;51.218;6.786;2023-12-07T00:27:04;15.77;;;9.97;;
10582;SDS011;33679;51.218;6.786;2023-12-07T00:29:41;13.13;;;9.03;;
10582;SDS011;33679;51.218;6.786;2023-12-07T00:32:15;14.80;;;9.17;;
10582;SDS011;33679;51.218;6.786;2023-12-07T00:34:49;14.37;;;8.87;;
10582;SDS011;33679;51.218;6.786;2023-12-07T00:37:28;13.53;;;8.63;;
10582;SDS011;33679;51.218;6.786;2023-12-07T00:40:08;14.93;;;9.13;;
10582;SDS011;33679;51.218;6.786;2023-12-07T00:42:41;13.27;;;8.93;;
10582;SDS011;33679;51.218;6.786;2023-12-07T00:45:14;15.77;;;9.00;;
10582;SDS011;33679;51.218;6.786;2023-12-07T00:47:50;17.67;;;9.87;;
10582;SDS011;33679;51.218;6.786;2023-12-07T00:50:22;14.90;;;9.63;;
10582;SDS011;33679;51.218;6.786;2023-12-07T00:52:55;13.83;;;9.50;;
10582;SDS011;33679;51.218;6.786;2023-12-07T00:55:29;12.37;;;8.60;;
10582;SDS011;33679;51.218;6.786;2023-12-07T00:58:15;16.50;;;9.67;;
10582;SDS011;33679;51.218;6.786;2023-12-07T01:00:47;16.63;;;9.10;;
10582;SDS011;33679;51.218;6.786;2023-12-07T01:03:23;18.50;;;9.50;;
10582;SDS011;33679;51.218;6.786;2023-12-07T01:05:59;12.27;;;9.13;;
10582;SDS011;33679;51.218;6.786;2023-12-07T01:08:32;14.70;;;8.17;;
10582;SDS011;33679;51.218;6.786;2023-12-07T01:11:04;16.37;;;10.33;;
10582;SDS011;33679;51.218;6.786;2023-12-07T01:13:38;22.83;;;9.90;;
10582;SDS011;33679;51.218;6.786;2023-12-07T01:16:11;13.57;;;9.10;;
10582;SDS011;33679;51.218;6.786;2023-12-07T01:18:45;15.00;;;9.00;;
10582;SDS011;33679;51.218;6.786;2023-12-07T01:21:17;12.60;;;8.60;;
10582;SDS011;33679;51.218;6.786;2023-12-07T01:23:51;13.57;;;8.60;;
10582;SDS011;33679;51.218;6.786;2023-12-07T01:26:23;16.43;;;9.37;;
10582;SDS011;33679;51.218;6.786;2023-12-07T01:28:56;15.03;;;9.77;;
10582;SDS011;33679;51.218;6.786;2023-12-07T01:31:29;13.73;;;9.70;;
10582;SDS011;33679;51.218;6.786;2023-12-07T01:34:04;14.90;;;9.30;;
10582;SDS011;33679;51.218;6.786;2023-12-07T01:36:37;13.97;;;9.47;;
10582;SDS011;33679;51.218;6.786;2023-12-07T01:39:10;13.43;;;9.43;;
10582;SDS011;33679;51.218;6.786;2023-12-07T01:41:43;13.30;;;9.27;;
10582;SDS011;33679;51.218;6.786;2023-12-07T01:44:16;17.87;;;9.30;;
10582;SDS011;33679;51.218;6.786;2023-12-07T01:46:50;15.40;;;9.60;;
10582;SDS011;33679;51.218;6.786;2023-12-07T01:49:24;12.70;;;9.80;;
10582;SDS011;33679;51.218;6.786;2023-12-07T01:51:57;14.57;;;9.00;;
10582;SDS011;33679;51.218;6.786;2023-12-07T01:54:30;19.20;;;9.67;;
10582;SDS011;33679;51.218;6.786;2023-12-07T01:57:05;16.10;;;9.93;;
10582;SDS011;33679;51.218;6.786;2023-12-07T01:59:38;17.50;;;8.73;;
10582;SDS011;33679;51.218;6.786;2023-12-07T02:02:11;14.83;;;8.70;;
10582;SDS011;33679;51.218;6.786;2023-12-07T02:04:45;13.90;;;9.23;;
10582;SDS011;33679;51.218;6.786;2023-12-07T02:07:18;13.90;;;8.87;;
10582;SDS011;33679;51.218;6.786;2023-12-07T02:09:52;14.30;;;9.87;;
10582;SDS011;33679;51.218;6.786;2023-12-07T02:12:24;18.00;;;9.17;;
10582;SDS011;33679;51.218;6.786;2023-12-07T02:15:00;15.10;;;9.60;;
10582;SDS011;33679;51.218;6.786;2023-12-07T02:17:34;17.10;;;10.07;;
10582;SDS011;33679;51.218;6.786;2023-12-07T02:20:13;13.27;;;9.27;;
10582;SDS011;33679;51.218;6.786;2023-12-07T02:22:52;14.33;;;8.97;;
10582;SDS011;33679;51.218;6.786;2023-12-07T02:25:28;14.60;;;10.17;;
10582;SDS011;33679;51.218;6.786;2023-12-07T02:28:05;13.70;;;8.67;;
10582;SDS011;33679;51.218;6.786;2023-12-07T02:30:38;15.43;;;9.70;;
10582;SDS011;33679;51.218;6.786;2023-12-07T02:33:12;13.37;;;9.23;;
10582;SDS011;33679;51.218;6.786;2023-12-07T02:35:46;13.87;;;8.97;;
10582;SDS011;33679;51.218;6.786;2023-12-07T02:38:18;14.17;;;9.00;;
10582;SDS011;33679;51.218;6.786;2023-12-07T02:40:55;13.77;;;9.07;;
10582;SDS011;33679;51.218;6.786;2023-12-07T02:43:32;15.60;;;9.53;;
10582;SDS011;33679;51.218;6.786;2023-12-07T02:46:06;15.43;;;9.33;;
10582;SDS011;33679;51.218;6.786;2023-12-07T02:48:38;13.73;;;9.77;;
10582;SDS011;33679;51.218;6.786;2023-12-07T02:51:10;12.93;;;10.30;;
10582;SDS011;33679;51.218;6.786;2023-12-07T02:53:45;14.83;;;10.07;;
10582;SDS011;33679;51.218;6.786;2023-12-07T02:56:17;15.93;;;10.83;;
10582;SDS011;33679;51.218;6.786;2023-12-07T02:58:52;14.20;;;9.33;;
10582;SDS011;33679;51.218;6.786;2023-12-07T03:01:27;17.30;;;10.13;;
10582;SDS011;33679;51.218;6.786;2023-12-07T03:04:00;18.17;;;10.60;;
10582;SDS011;33679;51.218;6.786;2023-12-07T03:06:32;14.77;;;9.23;;
10582;SDS011;33679;51.218;6.786;2023-12-07T03:09:04;18.30;;;9.67;;
10582;SDS011;33679;51.218;6.786;2023-12-07T03:11:37;14.27;;;10.20;;
10582;SDS011;33679;51.218;6.786;2023-12-07T03:14:10;15.87;;;9.77;;
10582;SDS011;33679;51.218;6.786;2023-12-07T03:16:43;20.47;;;10.20;;
10582;SDS011;33679;51.218;6.786;2023-12-07T03:19:15;15.47;;;9.43;;
10582;SDS011;33679;51.218;6.786;2023-12-07T03:21:48;18.63;;;9.70;;
10582;SDS011;33679;51.218;6.786;2023-12-07T03:24:20;16.90;;;10.70;;
10582;SDS011;33679;51.218;6.786;2023-12-07T03:26:53;16.47;;;9.00;;
10582;SDS011;33679;51.218;6.786;2023-12-07T03:29:29;16.07;;;10.20;;
10582;SDS011;33679;51.218;6.786;2023-12-07T03:32:02;15.50;;;9.57;;
10582;SDS011;33679;51.218;6.786;2023-12-07T03:34:35;16.23;;;9.20;;
10582;SDS011;33679;51.218;6.786;2023-12-07T03:37:07;15.07;;;9.50;;
10582;SDS011;33679;51.218;6.786;2023-12-07T03:39:39;13.50;;;9.13;;
10582;SDS011;33679;51.218;6.786;2023-12-07T03:42:12;14.37;;;9.90;;
10582;SDS011;33679;51.218;6.786;2023-12-07T03:44:46;18.30;;;9.13;;
10582;SDS011;33679;51.218;6.786;2023-12-07T03:47:19;14.93;;;9.20;;
10582;SDS011;33679;51.218;6.786;2023-12-07T03:49:51;15.50;;;9.13;;
10582;SDS011;33679;51.218;6.786;2023-12-07T03:52:23;15.47;;;9.17;;
10582;SDS011;33679;51.218;6.786;2023-12-07T03:54:56;15.93;;;9.50;;
10582;SDS011;33679;51.218;6.786;2023-12-07T03:57:32;19.13;;;10.00;;
10582;SDS011;33679;51.218;6.786;2023-12-07T04:00:13;19.47;;;10.03;;
10582;SDS011;33679;51.218;6.786;2023-12-07T04:02:46;13.77;;;8.97;;
10582;SDS011;33679;51.218;6.786;2023-12-07T04:05:18;19.17;;;9.80;;
10582;SDS011;33679;51.218;6.786;2023-12-07T04:07:51;18.20;;;10.93;;
10582;SDS011;33679;51.218;6.786;2023-12-07T04:10:33;12.97;;;8.60;;
10582;SDS011;33679;51.218;6.786;2023-12-07T04:13:07;16.80;;;9.87;;
10582;SDS011;33679;51.218;6.786;2023-12-07T04:15:41;16.47;;;11.00;;
10582;SDS011;33679;51.218;6.786;2023-12-07T04:18:13;17.10;;;9.90;;
10582;SDS011;33679;51.218;6.786;2023-12-07T04:20:48;15.20;;;9.53;;
10582;SDS011;33679;51.218;6.786;2023-12-07T04:23:21;15.37;;;9.60;;
10582;SDS011;33679;51.218;6.786;2023-12-07T04:25:54;13.23;;;9.60;;
10582;SDS011;33679;51.218;6.786;2023-12-07T04:28:26;16.10;;;10.17;;
10582;SDS011;33679;51.218;6.786;2023-12-07T04:31:00;13.30;;;9.20;;
10582;SDS011;33679;51.218;6.786;2023-12-07T04:33:33;14.20;;;9.33;;
10582;SDS011;33679;51.218;6.786;2023-12-07T04:36:06;16.13;;;8.97;;
10582;SDS011;33679;51.218;6.786;2023-12-07T04:38:39;19.37;;;9.80;;
10582;SDS011;33679;51.218;6.786;2023-12-07T04:41:14;15.50;;;9.67;;
10582;SDS011;33679;51.218;6.786;2023-12-07T04:43:47;13.20;;;9.40;;
10582;SDS011;33679;51.218;6.786;2023-12-07T04:46:20;20.80;;;9.83;;
10582;SDS011;33679;51.218;6.786;2023-12-07T04:48:53;16.07;;;9.50;;
10582;SDS011;33679;51.218;6.786;2023-12-07T04:51:25;14.83;;;9.47;;
10582;SDS011;33679;51.218;6.786;2023-12-07T04:53:57;13.83;;;9.10;;
10582;SDS011;33679;51.218;6.786;2023-12-07T04:56:30;18.27;;;9.40;;
10582;SDS011;33679;51.218;6.786;2023-12-07T04:59:02;15.87;;;9.73;;
10582;SDS011;33679;51.218;6.786;2023-12-07T05:01:37;17.43;;;10.47;;
10582;SDS011;33679;51.218;6.786;2023-12-07T05:04:10;17.53;;;9.53;;
10582;SDS011;33679;51.218;6.786;2023-12-07T05:06:42;18.33;;;9.87;;
10582;SDS011;33679;51.218;6.786;2023-12-07T05:09:14;13.93;;;9.60;;
10582;SDS011;33679;51.218;6.786;2023-12-07T05:11:47;16.87;;;9.80;;
10582;SDS011;33679;51.218;6.786;2023-12-07T05:14:19;15.30;;;9.60;;
10582;SDS011;33679;51.218;6.786;2023-12-07T05:16:52;20.47;;;9.43;;
10582;SDS011;33679;51.218;6.786;2023-12-07T05:19:26;18.40;;;9.57;;
10582;SDS011;33679;51.218;6.786;2023-12-07T05:21:58;15.30;;;9.47;;
10582;SDS011;33679;51.218;6.786;2023-12-07T05:24:30;16.63;;;9.53;;
10582;SDS011;33679;51.218;6.786;2023-12-07T05:27:05;15.07;;;9.73;;
10582;SDS011;33679;51.218;6.786;2023-12-07T05:29:37;19.53;;;10.27;;
10582;SDS011;33679;51.218;6.786;2023-12-07T05:32:12;15.97;;;9.87;;
10582;SDS011;33679;51.218;6.786;2023-12-07T05:34:50;18.90;;;9.57;;
10582;SDS011;33679;51.218;6.786;2023-12-07T05:37:23;16.83;;;10.23;;
10582;SDS011;33679;51.218;6.786;2023-12-07T05:39:55;20.73;;;11.00;;
10582;SDS011;33679;51.218;6.786;2023-12-07T05:42:27;16.10;;;10.43;;
10582;SDS011;33679;51.218;6.786;2023-12-07T05:45:03;18.90;;;9.77;;
10582;SDS011;33679;51.218;6.786;2023-12-07T05:47:38;23.03;;;10.93;;
10582;SDS011;33679;51.218;6.786;2023-12-07T05:50:10;17.63;;;9.53;;
10582;SDS011;33679;51.218;6.786;2023-12-07T05:52:43;14.37;;;8.77;;
10582;SDS011;33679;51.218;6.786;2023-12-07T05:55:15;17.63;;;9.50;;
10582;SDS011;33679;51.218;6.786;2023-12-07T05:57:48;20.50;;;10.97;;
10582;SDS011;33679;51.218;6.786;2023-12-07T06:00:21;23.80;;;10.27;;
10582;SDS011;33679;51.218;6.786;2023-12-07T06:02:57;17.80;;;10.17;;
10582;SDS011;33679;51.218;6.786;2023-12-07T06:05:32;17.83;;;10.00;;
10582;SDS011;33679;51.218;6.786;2023-12-07T06:08:05;15.70;;;10.30;;
10582;SDS011;33679;51.218;6.786;2023-12-07T06:10:37;15.60;;;9.43;;
10582;SDS011;33679;51.218;6.786;2023-12-07T06:13:12;17.73;;;9.37;;
10582;SDS011;33679;51.218;6.786;2023-12-07T06:15:47;16.60;;;9.73;;
10582;SDS011;33679;51.218;6.786;2023-12-07T06:18:23;13.40;;;9.20;;
10582;SDS011;33679;51.218;6.786;2023-12-07T06:20:58;14.37;;;9.50;;
10582;SDS011;33679;51.218;6.786;2023-12-07T06:23:39;15.30;;;9.83;;
10582;SDS011;33679;51.218;6.786;2023-12-07T06:26:18;21.30;;;10.20;;
10582;SDS011;33679;51.218;6.786;2023-12-07T06:28:53;16.10;;;9.93;;
10582;SDS011;33679;51.218;6.786;2023-12-07T06:31:26;17.03;;;9.90;;
10582;SDS011;33679;51.218;6.786;2023-12-07T06:33:59;17.73;;;9.57;;
10582;SDS011;33679;51.218;6.786;2023-12-07T06:36:33;16.80;;;9.63;;
10582;SDS011;33679;51.218;6.786;2023-12-07T06:39:06;16.07;;;9.50;;
10582;SDS011;33679;51.218;6.786;2023-12-07T06:41:40;23.70;;;10.77;;
10582;SDS011;33679;51.218;6.786;2023-12-07T06:44:13;17.33;;;10.30;;
10582;SDS011;33679;51.218;6.786;2023-12-07T06:46:45;18.80;;;9.67;;
10582;SDS011;33679;51.218;6.786;2023-12-07T06:49:19;14.43;;;9.90;;
10582;SDS011;33679;51.218;6.786;2023-12-07T06:51:51;13.67;;;8.47;;
10582;SDS011;33679;51.218;6.786;2023-12-07T06:54:24;18.00;;;10.47;;
10582;SDS011;33679;51.218;6.786;2023-12-07T06:56:56;15.00;;;8.30;;
10582;SDS011;33679;51.218;6.786;2023-12-07T06:59:31;14.20;;;8.53;;
10582;SDS011;33679;51.218;6.786;2023-12-07T07:02:04;16.73;;;10.40;;
10582;SDS011;33679;51.218;6.786;2023-12-07T07:04:37;13.57;;;8.10;;
10582;SDS011;33679;51.218;6.786;2023-12-07T07:07:10;16.90;;;8.93;;
10582;SDS011;33679;51.218;6.786;2023-12-07T07:09:43;13.67;;;8.10;;
10582;SDS011;33679;51.218;6.786;2023-12-07T07:12:16;13.37;;;8.23;;
10582;SDS011;33679;51.218;6.786;2023-12-07T07:14:48;15.00;;;8.60;;
10582;SDS011;33679;51.218;6.786;2023-12-07T07:17:21;16.87;;;8.77;;
10582;SDS011;33679;51.218;6.786;2023-12-07T07:19:55;13.33;;;8.00;;
10582;SDS011;33679;51.218;6.786;2023-12-07T07:22:29;15.43;;;7.63;;
10582;SDS011;33679;51.218;6.786;2023-12-07T07:25:01;12.43;;;7.27;;
10582;SDS011;33679;51.218;6.786;2023-12-07T07:27:34;15.47;;;7.87;;
10582;SDS011;33679;51.218;6.786;2023-12-07T07:30:07;12.20;;;7.40;;
10582;SDS011;33679;51.218;6.786;2023-12-07T07:32:40;14.97;;;7.40;;
10582;SDS011;33679;51.218;6.786;2023-12-07T07:35:14;13.67;;;7.70;;
10582;SDS011;33679;51.218;6.786;2023-12-07T07:37:46;12.43;;;7.53;;
10582;SDS011;33679;51.218;6.786;2023-12-07T07:40:19;12.27;;;6.73;;
10582;SDS011;33679;51.218;6.786;2023-12-07T07:42:51;11.90;;;7.37;;
10582;SDS011;33679;51.218;6.786;2023-12-07T07:45:24;17.67;;;8.20;;
10582;SDS011;33679;51.218;6.786;2023-12-07T07:47:56;15.50;;;9.00;;
10582;SDS011;33679;51.218;6.786;2023-12-07T07:50:32;13.43;;;6.80;;
10582;SDS011;33679;51.218;6.786;2023-12-07T07:53:07;11.03;;;7.03;;
10582;SDS011;33679;51.218;6.786;2023-12-07T07:55:44;25.20;;;14.77;;
10582;SDS011;33679;51.218;6.786;2023-12-07T07:58:19;25.30;;;14.20;;
10582;SDS011;33679;51.218;6.786;2023-12-07T08:01:00;20.40;;;8.10;;
10582;SDS011;33679;51.218;6.786;2023-12-07T08:03:35;15.10;;;7.43;;
10582;SDS011;33679;51.218;6.786;2023-12-07T08:06:13;29.63;;;11.00;;
10582;SDS011;33679;51.218;6.786;2023-12-07T08:08:46;40.87;;;12.03;;
10582;SDS011;33679;51.218;6.786;2023-12-07T08:11:27;27.83;;;12.73;;
10582;SDS011;33679;51.218;6.786;2023-12-07T08:14:05;26.93;;;13.80;;
10582;SDS011;33679;51.218;6.786;2023-12-07T08:16:38;21.60;;;11.93;;
10582;SDS011;33679;51.218;6.786;2023-12-07T08:19:18;13.40;;;7.73;;
10582;SDS011;33679;51.218;6.786;2023-12-07T08:22:04;17.90;;;7.50;;
10582;SDS011;33679;51.218;6.786;2023-12-07T08:24:38;13.17;;;6.70;;
10582;SDS011;33679;51.218;6.786;2023-12-07T08:27:14;11.67;;;6.40;;
10582;SDS011;33679;51.218;6.786;2023-12-07T08:29:48;10.73;;;6.87;;
10582;SDS011;33679;51.218;6.786;2023-12-07T08:32:22;10.20;;;6.27;;
10582;SDS011;33679;51.218;6.786;2023-12-07T08:35:05;10.90;;;7.00;;
10582;SDS011;33679;51.218;6.786;2023-12-07T08:37:55;11.37;;;7.77;;
10582;SDS011;33679;51.218;6.786;2023-12-07T08:40:31;14.87;;;7.63;;
10582;SDS011;33679;51.218;6.786;2023-12-07T08:43:04;15.60;;;7.80;;
10582;SDS011;33679;51.218;6.786;2023-12-07T08:45:39;15.60;;;7.40;;
10582;SDS011;33679;51.218;6.786;2023-12-07T08:48:30;19.90;;;9.80;;
10582;SDS011;33679;51.218;6.786;2023-12-07T08:51:05;10.90;;;7.13;;
10582;SDS011;33679;51.218;6.786;2023-12-07T08:53:41;14.70;;;7.60;;
10582;SDS011;33679;51.218;6.786;2023-12-07T08:56:14;14.37;;;7.37;;
10582;SDS011;33679;51.218;6.786;2023-12-07T08:58:46;12.03;;;7.00;;
10582;SDS011;33679;51.218;6.786;2023-12-07T09:01:19;9.60;;;6.30;;
10582;SDS011;33679;51.218;6.786;2023-12-07T09:03:52;9.33;;;6.30;;
10582;SDS011;33679;51.218;6.786;2023-12-07T09:06:24;10.53;;;6.63;;
10582;SDS011;33679;51.218;6.786;2023-12-07T09:09:00;11.33;;;7.20;;
10582;SDS011;33679;51.218;6.786;2023-12-07T09:11:34;11.33;;;7.33;;
10582;SDS011;33679;51.218;6.786;2023-12-07T09:14:07;12.90;;;6.87;;
10582;SDS011;33679;51.218;6.786;2023-12-07T09:16:42;13.33;;;8.80;;
10582;SDS011;33679;51.218;6.786;2023-12-07T09:19:16;17.00;;;11.47;;
10582;SDS011;33679;51.218;6.786;2023-12-07T09:21:52;14.43;;;8.13;;
10582;SDS011;33679;51.218;6.786;2023-12-07T09:24:26;11.10;;;7.10;;
10582;SDS011;33679;51.218;6.786;2023-12-07T09:26:59;12.13;;;6.73;;
10582;SDS011;33679;51.218;6.786;2023-12-07T09:29:31;10.87;;;7.07;;
10582;SDS011;33679;51.218;6.786;2023-12-07T09:32:05;11.50;;;6.80;;
10582;SDS011;33679;51.218;6.786;2023-12-07T09:34:43;13.67;;;8.77;;
10582;SDS011;33679;51.218;6.786;2023-12-07T09:37:15;14.77;;;8.10;;
10582;SDS011;33679;51.218;6.786;2023-12-07T09:39:52;13.47;;;8.03;;
10582;SDS011;33679;51.218;6.786;2023-12-07T09:42:25;14.20;;;8.50;;
10582;SDS011;33679;51.218;6.786;2023-12-07T09:45:01;16.00;;;7.33;;
10582;SDS011;33679;51.218;6.786;2023-12-07T09:47:36;11.70;;;7.37;;
10582;SDS011;33679;51.218;6.786;2023-12-07T09:50:16;13.47;;;8.40;;
10582;SDS011;33679;51.218;6.786;2023-12-07T09:52:52;30.07;;;16.17;;
10582;SDS011;33679;51.218;6.786;2023-12-07T09:55:30;14.23;;;9.50;;
10582;SDS011;33679;51.218;6.786;2023-12-07T09:58:06;14.20;;;8.70;;
10582;SDS011;33679;51.218;6.786;2023-12-07T10:00:39;15.53;;;9.00;;
10582;SDS011;33679;51.218;6.786;2023-12-07T10:03:19;14.37;;;8.90;;
10582;SDS011;33679;51.218;6.786;2023-12-07T10:06:07;12.30;;;7.83;;
10582;SDS011;33679;51.218;6.786;2023-12-07T10:08:37;15.80;;;8.10;;
10582;SDS011;33679;51.218;6.786;2023-12-07T10:11:16;15.50;;;9.03;;
10582;SDS011;33679;51.218;6.786;2023-12-07T10:13:51;17.00;;;8.00;;
10582;SDS011;33679;51.218;6.786;2023-12-07T10:16:24;12.47;;;7.77;;
10582;SDS011;33679;51.218;6.786;2023-12-07T10:18:57;13.43;;;7.30;;
10582;SDS011;33679;51.218;6.786;2023-12-07T10:21:45;14.87;;;8.70;;
10582;SDS011;33679;51.218;6.786;2023-12-07T10:24:19;15.33;;;7.47;;
10582;SDS011;33679;51.218;6.786;2023-12-07T10:26:57;14.70;;;9.17;;
10582;SDS011;33679;51.218;6.786;2023-12-07T10:29:31;15.37;;;9.47;;
10582;SDS011;33679;51.218;6.786;2023-12-07T10:32:10;16.20;;;8.90;;
10582;SDS011;33679;51.218;6.786;2023-12-07T10:34:43;16.90;;;8.60;;
10582;SDS011;33679;51.218;6.786;2023-12-07T10:37:17;14.23;;;8.70;;
10582;SDS011;33679;51.218;6.786;2023-12-07T10:39:54;13.30;;;8.90;;
10582;SDS011;33679;51.218;6.786;2023-12-07T10:42:28;14.53;;;8.63;;
10582;SDS011;33679;51.218;6.786;2023-12-07T10:45:09;16.03;;;8.47;;
10582;SDS011;33679;51.218;6.786;2023-12-07T10:47:45;15.00;;;9.03;;
10582;SDS011;33679;51.218;6.786;2023-12-07T10:50:25;17.63;;;9.00;;
10582;SDS011;33679;51.218;6.786;2023-12-07T10:53:04;12.63;;;8.83;;
10582;SDS011;33679;51.218;6.786;2023-12-07T10:55:46;15.53;;;8.53;;
10582;SDS011;33679;51.218;6.786;2023-12-07T10:58:27;17.40;;;9.37;;
10582;SDS011;33679;51.218;6.786;2023-12-07T11:01:00;16.27;;;9.30;;
10582;SDS011;33679;51.218;6.786;2023-12-07T11:03:41;13.93;;;8.20;;
10582;SDS011;33679;51.218;6.786;2023-12-07T11:06:28;16.63;;;9.27;;
10582;SDS011;33679;51.218;6.786;2023-12-07T11:09:19;16.67;;;8.60;;
10582;SDS011;33679;51.218;6.786;2023-12-07T11:12:11;14.77;;;9.60;;
10582;SDS011;33679;51.218;6.786;2023-12-07T11:15:04;14.47;;;8.50;;
10582;SDS011;33679;51.218;6.786;2023-12-07T11:18:08;22.03;;;11.17;;
10582;SDS011;33679;51.218;6.786;2023-12-07T11:20:55;13.50;;;8.10;;
10582;SDS011;33679;51.218;6.786;2023-12-07T11:23:33;13.87;;;8.50;;
10582;SDS011;33679;51.218;6.786;2023-12-07T11:26:06;14.23;;;9.00;;
10582;SDS011;33679;51.218;6.786;2023-12-07T11:28:43;11.40;;;7.90;;
10582;SDS011;33679;51.218;6.786;2023-12-07T11:31:17;16.63;;;7.47;;
10582;SDS011;33679;51.218;6.786;2023-12-07T11:33:52;13.70;;;7.70;;
10582;SDS011;33679;51.218;6.786;2023-12-07T11:36:25;11.00;;;7.37;;
10582;SDS011;33679;51.218;6.786;2023-12-07T11:41:58;9.63;;;7.53;;
10582;SDS011;33679;51.218;6.786;2023-12-07T11:44:42;15.30;;;8.30;;
10582;SDS011;33679;51.218;6.786;2023-12-07T11:47:19;11.77;;;8.00;;
10582;SDS011;33679;51.218;6.786;2023-12-07T11:49:52;14.60;;;7.80;;
10582;SDS011;33679;51.218;6.786;2023-12-07T11:52:26;18.00;;;7.93;;
10582;SDS011;33679;51.218;6.786;2023-12-07T11:55:00;22.40;;;9.60;;
10582;SDS011;33679;51.218;6.786;2023-12-07T11:57:33;16.60;;;8.53;;
10582;SDS011;33679;51.218;6.786;2023-12-07T12:00:12;12.90;;;7.77;;
10582;SDS011;33679;51.218;6.786;2023-12-07T12:05:44;14.90;;;7.17;;
10582;SDS011;33679;51.218;6.786;2023-12-07T12:08:18;10.67;;;7.17;;
10582;SDS011;33679;51.218;6.786;2023-12-07T12:10:51;11.17;;;7.00;;
10582;SDS011;33679;51.218;6.786;2023-12-07T12:13:28;13.13;;;7.20;;
10582;SDS011;33679;51.218;6.786;2023-12-07T12:16:02;14.40;;;7.60;;
10582;SDS011;33679;51.218;6.786;2023-12-07T12:18:39;10.90;;;7.03;;
10582;SDS011;33679;51.218;6.786;2023-12-07T12:21:12;13.63;;;7.83;;
10582;SDS011;33679;51.218;6.786;2023-12-07T12:23:44;14.80;;;8.40;;
10582;SDS011;33679;51.218;6.786;2023-12-07T12:26:25;11.93;;;7.53;;
10582;SDS011;33679;51.218;6.786;2023-12-07T12:29:00;13.40;;;7.57;;
10582;SDS011;33679;51.218;6.786;2023-12-07T12:31:34;12.87;;;7.63;;
10582;SDS011;33679;51.218;6.786;2023-12-07T12:34:08;10.23;;;6.40;;
10582;SDS011;33679;51.218;6.786;2023-12-07T12:36:42;10.57;;;7.20;;
10582;SDS011;33679;51.218;6.786;2023-12-07T12:39:15;14.20;;;7.47;;
10582;SDS011;33679;51.218;6.786;2023-12-07T12:41:53;14.10;;;6.80;;
10582;SDS011;33679;51.218;6.786;2023-12-07T12:44:35;11.47;;;7.30;;
10582;SDS011;33679;51.218;6.786;2023-12-07T12:47:09;11.37;;;6.63;;
10582;SDS011;33679;51.218;6.786;2023-12-07T12:49:43;10.47;;;6.77;;
10582;SDS011;33679;51.218;6.786;2023-12-07T12:52:17;16.80;;;8.30;;
10582;SDS011;33679;51.218;6.786;2023-12-07T12:54:52;11.33;;;7.40;;
10582;SDS011;33679;51.218;6.786;2023-12-07T12:57:27;12.03;;;7.30;;
10582;SDS011;33679;51.218;6.786;2023-12-07T13:00:00;11.30;;;6.80;;
10582;SDS011;33679;51.218;6.786;2023-12-07T13:02:34;16.20;;;7.70;;
10582;SDS011;33679;51.218;6.786;2023-12-07T13:05:09;10.70;;;6.20;;
10582;SDS011;33679;51.218;6.786;2023-12-07T13:07:43;10.10;;;6.40;;
10582;SDS011;33679;51.218;6.786;2023-12-07T13:10:21;10.80;;;6.70;;
10582;SDS011;33679;51.218;6.786;2023-12-07T13:12:54;9.80;;;7.13;;
10582;SDS011;33679;51.218;6.786;2023-12-07T13:15:26;12.20;;;6.70;;
10582;SDS011;33679;51.218;6.786;2023-12-07T13:18:00;9.10;;;6.27;;
10582;SDS011;33679;51.218;6.786;2023-12-07T13:20:38;12.83;;;6.70;;
10582;SDS011;33679;51.218;6.786;2023-12-07T13:23:13;7.13;;;5.90;;
10582;SDS011;33679;51.218;6.786;2023-12-07T13:25:48;10.87;;;5.53;;
10582;SDS011;33679;51.218;6.786;2023-12-07T13:28:25;10.70;;;5.87;;
10582;SDS011;33679;51.218;6.786;2023-12-07T13:31:02;11.13;;;7.20;;
10582;SDS011;33679;51.218;6.786;2023-12-07T13:33:38;10.40;;;5.43;;
10582;SDS011;33679;51.218;6.786;2023-12-07T13:36:15;12.43;;;7.10;;
10582;SDS011;33679;51.218;6.786;2023-12-07T13:38:48;13.63;;;7.00;;
10582;SDS011;33679;51.218;6.786;2023-12-07T13:41:21;9.93;;;5.80;;
10582;SDS011;33679;51.218;6.786;2023-12-07T13:43:53;7.57;;;5.60;;
10582;SDS011;33679;51.218;6.786;2023-12-07T13:46:26;11.47;;;7.17;;
10582;SDS011;33679;51.218;6.786;2023-12-07T13:49:03;11.13;;;7.00;;
10582;SDS011;33679;51.218;6.786;2023-12-07T13:51:39;10.57;;;6.37;;
10582;SDS011;33679;51.218;6.786;2023-12-07T13:54:16;10.53;;;5.97;;
10582;SDS011;33679;51.218;6.786;2023-12-07T13:56:49;8.90;;;5.70;;
10582;SDS011;33679;51.218;6.786;2023-12-07T13:59:22;9.60;;;6.17;;
10582;SDS011;33679;51.218;6.786;2023-12-07T14:01:54;8.00;;;5.60;;
10582;SDS011;33679;51.218;6.786;2023-12-07T14:04:30;11.20;;;6.03;;
10582;SDS011;33679;51.218;6.786;2023-12-07T14:07:11;11.33;;;6.63;;
10582;SDS011;33679;51.218;6.786;2023-12-07T14:09:45;9.87;;;6.50;;
10582;SDS011;33679;51.218;6.786;2023-12-07T14:12:21;12.23;;;5.87;;
10582;SDS011;33679;51.218;6.786;2023-12-07T14:14:53;11.40;;;6.40;;
10582;SDS011;33679;51.218;6.786;2023-12-07T14:17:27;10.70;;;6.30;;
10582;SDS011;33679;51.218;6.786;2023-12-07T14:20:07;14.40;;;5.93;;
10582;SDS011;33679;51.218;6.786;2023-12-07T14:22:41;9.60;;;6.00;;
10582;SDS011;33679;51.218;6.786;2023-12-07T14:25:17;8.13;;;5.70;;
10582;SDS011;33679;51.218;6.786;2023-12-07T14:27:49;10.57;;;5.60;;
10582;SDS011;33679;51.218;6.786;2023-12-07T14:30:22;8.33;;;5.40;;
10582;SDS011;33679;51.218;6.786;2023-12-07T14:32:54;9.23;;;5.57;;
10582;SDS011;33679;51.218;6.786;2023-12-07T14:35:27;9.70;;;5.50;;
10582;SDS011;33679;51.218;6.786;2023-12-07T14:38:02;6.97;;;4.87;;
10582;SDS011;33679;51.218;6.786;2023-12-07T14:40:34;6.73;;;4.80;;
10582;SDS011;33679;51.218;6.786;2023-12-07T14:43:07;9.10;;;5.37;;
10582;SDS011;33679;51.218;6.786;2023-12-07T14:45:39;12.30;;;6.20;;
10582;SDS011;33679;51.218;6.786;2023-12-07T14:48:15;10.90;;;5.50;;
10582;SDS011;33679;51.218;6.786;2023-12-07T14:50:47;7.50;;;4.83;;
10582;SDS011;33679;51.218;6.786;2023-12-07T14:53:21;7.07;;;4.70;;
10582;SDS011;33679;51.218;6.786;2023-12-07T14:55:55;9.87;;;4.73;;
10582;SDS011;33679;51.218;6.786;2023-12-07T14:58:28;9.37;;;5.57;;
10582;SDS011;33679;51.218;6.786;2023-12-07T15:01:01;7.97;;;4.70;;
10582;SDS011;33679;51.218;6.786;2023-12-07T15:03:34;7.30;;;4.40;;
10582;SDS011;33679;51.218;6.786;2023-12-07T15:06:06;11.07;;;5.13;;
10582;SDS011;33679;51.218;6.786;2023-12-07T15:08:43;9.40;;;5.80;;
10582;SDS011;33679;51.218;6.786;2023-12-07T15:11:15;8.03;;;5.57;;
10582;SDS011;33679;51.218;6.786;2023-12-07T15:13:48;22.00;;;11.00;;
10582;SDS011;33679;51.218;6.786;2023-12-07T15:16:22;14.37;;;7.47;;
10582;SDS011;33679;51.218;6.786;2023-12-07T15:18:56;12.40;;;7.17;;
10582;SDS011;33679;51.218;6.786;2023-12-07T15:21:31;11.43;;;5.43;;
10582;SDS011;33679;51.218;6.786;2023-12-07T15:24:05;10.63;;;5.13;;